sensor_id;sensor_type;location;lat;lon;timestamp;P1;durP1;ratioP1;P2;durP2;ratioP2
17199;SDS011;8716;52.268;20.968;2023-04-27T00:01:08;3.55;;;3.35;;
17199;SDS011;8716;52.268;20.968;2023-04-27T00:03:39;5.95;;;5.22;;
17199;SDS011;8716;52.268;20.968;2023-04-27T00:06:08;5.13;;;4.82;;
17199;SDS011;8716;52.268;20.968;2023-04-27T00:08:38;3.10;;;2.70;;
17199;SDS011;8716;52.268;20.968;2023-04-27T00:11:08;5.78;;;5.47;;
17199;SDS011;8716;52.268;20.968;2023-04-27T00:13:39;3.58;;;3.38;;
17199;SDS011;8716;52.268;20.968;2023-04-27T00:16:12;3.50;;;3.33;;
17199;SDS011;8716;52.268;20.968;2023-04-27T00:18:43;4.70;;;4.38;;
17199;SDS011;8716;52.268;20.968;2023-04-27T00:21:12;7.13;;;5.00;;
17199;SDS011;8716;52.268;20.968;2023-04-27T00:23:47;4.68;;;4.38;;
17199;SDS011;8716;52.268;20.968;2023-04-27T00:26:15;4.88;;;4.57;;
17199;SDS011;8716;52.268;20.968;2023-04-27T00:28:46;3.90;;;3.70;;
17199;SDS011;8716;52.268;20.968;2023-04-27T00:31:19;7.65;;;2.95;;
17199;SDS011;8716;52.268;20.968;2023-04-27T00:33:47;3.63;;;3.42;;
17199;SDS011;8716;52.268;20.968;2023-04-27T00:36:16;7.00;;;5.15;;
17199;SDS011;8716;52.268;20.968;2023-04-27T00:38:46;3.22;;;2.97;;
17199;SDS011;8716;52.268;20.968;2023-04-27T00:41:14;5.35;;;5.00;;
17199;SDS011;8716;52.268;20.968;2023-04-27T00:43:43;3.88;;;3.67;;
17199;SDS011;8716;52.268;20.968;2023-04-27T00:46:13;4.50;;;4.20;;
17199;SDS011;8716;52.268;20.968;2023-04-27T00:48:43;4.30;;;3.78;;
17199;SDS011;8716;52.268;20.968;2023-04-27T00:51:11;3.75;;;3.55;;
17199;SDS011;8716;52.268;20.968;2023-04-27T00:53:43;3.97;;;3.70;;
17199;SDS011;8716;52.268;20.968;2023-04-27T00:56:11;4.35;;;3.38;;
17199;SDS011;8716;52.268;20.968;2023-04-27T00:58:39;4.95;;;3.40;;
17199;SDS011;8716;52.268;20.968;2023-04-27T01:01:08;6.63;;;4.63;;
17199;SDS011;8716;52.268;20.968;2023-04-27T01:03:37;5.80;;;5.43;;
17199;SDS011;8716;52.268;20.968;2023-04-27T01:06:07;3.90;;;3.70;;
17199;SDS011;8716;52.268;20.968;2023-04-27T01:08:38;5.20;;;4.90;;
17199;SDS011;8716;52.268;20.968;2023-04-27T01:11:06;3.72;;;3.58;;
17199;SDS011;8716;52.268;20.968;2023-04-27T01:13:37;4.47;;;4.18;;
17199;SDS011;8716;52.268;20.968;2023-04-27T01:16:06;3.97;;;3.75;;
17199;SDS011;8716;52.268;20.968;2023-04-27T01:18:37;4.63;;;4.32;;
17199;SDS011;8716;52.268;20.968;2023-04-27T01:21:07;9.45;;;4.90;;
17199;SDS011;8716;52.268;20.968;2023-04-27T01:23:37;4.25;;;3.97;;
17199;SDS011;8716;52.268;20.968;2023-04-27T01:26:05;3.28;;;3.08;;
17199;SDS011;8716;52.268;20.968;2023-04-27T01:28:33;7.57;;;5.95;;
17199;SDS011;8716;52.268;20.968;2023-04-27T01:31:01;5.72;;;5.43;;
17199;SDS011;8716;52.268;20.968;2023-04-27T01:33:32;4.70;;;3.83;;
17199;SDS011;8716;52.268;20.968;2023-04-27T01:36:00;3.70;;;3.50;;
17199;SDS011;8716;52.268;20.968;2023-04-27T01:38:28;3.85;;;3.65;;
17199;SDS011;8716;52.268;20.968;2023-04-27T01:40:58;3.22;;;3.05;;
17199;SDS011;8716;52.268;20.968;2023-04-27T01:43:27;2.75;;;2.55;;
17199;SDS011;8716;52.268;20.968;2023-04-27T01:46:03;4.45;;;3.35;;
17199;SDS011;8716;52.268;20.968;2023-04-27T01:48:32;4.40;;;4.10;;
17199;SDS011;8716;52.268;20.968;2023-04-27T01:51:00;5.75;;;5.43;;
17199;SDS011;8716;52.268;20.968;2023-04-27T01:53:29;5.00;;;4.70;;
17199;SDS011;8716;52.268;20.968;2023-04-27T01:56:01;4.72;;;4.35;;
17199;SDS011;8716;52.268;20.968;2023-04-27T01:58:31;5.40;;;4.35;;
17199;SDS011;8716;52.268;20.968;2023-04-27T02:00:59;5.03;;;3.83;;
17199;SDS011;8716;52.268;20.968;2023-04-27T02:03:28;4.93;;;4.63;;
17199;SDS011;8716;52.268;20.968;2023-04-27T02:05:59;5.57;;;5.03;;
17199;SDS011;8716;52.268;20.968;2023-04-27T02:08:27;6.57;;;3.97;;
17199;SDS011;8716;52.268;20.968;2023-04-27T02:10:55;4.75;;;4.45;;
17199;SDS011;8716;52.268;20.968;2023-04-27T02:13:25;5.88;;;5.57;;
17199;SDS011;8716;52.268;20.968;2023-04-27T02:15:53;4.88;;;4.57;;
17199;SDS011;8716;52.268;20.968;2023-04-27T02:18:22;4.32;;;4.05;;
17199;SDS011;8716;52.268;20.968;2023-04-27T02:20:50;4.50;;;4.20;;
17199;SDS011;8716;52.268;20.968;2023-04-27T02:23:19;4.72;;;4.43;;
17199;SDS011;8716;52.268;20.968;2023-04-27T02:25:47;9.35;;;5.40;;
17199;SDS011;8716;52.268;20.968;2023-04-27T02:28:15;3.60;;;3.40;;
17199;SDS011;8716;52.268;20.968;2023-04-27T02:30:45;3.05;;;2.83;;
17199;SDS011;8716;52.268;20.968;2023-04-27T02:33:13;3.40;;;3.20;;
17199;SDS011;8716;52.268;20.968;2023-04-27T02:35:41;4.43;;;3.95;;
17199;SDS011;8716;52.268;20.968;2023-04-27T02:38:09;3.58;;;3.38;;
17199;SDS011;8716;52.268;20.968;2023-04-27T02:40:38;4.15;;;3.92;;
17199;SDS011;8716;52.268;20.968;2023-04-27T02:43:07;5.57;;;5.28;;
17199;SDS011;8716;52.268;20.968;2023-04-27T02:45:36;5.38;;;5.07;;
17199;SDS011;8716;52.268;20.968;2023-04-27T02:48:06;3.70;;;3.50;;
17199;SDS011;8716;52.268;20.968;2023-04-27T02:50:39;9.85;;;4.78;;
17199;SDS011;8716;52.268;20.968;2023-04-27T02:53:08;6.03;;;3.92;;
17199;SDS011;8716;52.268;20.968;2023-04-27T02:55:37;3.75;;;3.55;;
17199;SDS011;8716;52.268;20.968;2023-04-27T02:58:05;6.00;;;5.70;;
17199;SDS011;8716;52.268;20.968;2023-04-27T03:00:33;4.72;;;4.40;;
17199;SDS011;8716;52.268;20.968;2023-04-27T03:03:02;12.82;;;5.97;;
17199;SDS011;8716;52.268;20.968;2023-04-27T03:05:32;6.63;;;6.13;;
17199;SDS011;8716;52.268;20.968;2023-04-27T03:08:00;7.43;;;7.03;;
17199;SDS011;8716;52.268;20.968;2023-04-27T03:10:28;3.42;;;3.25;;
17199;SDS011;8716;52.268;20.968;2023-04-27T03:12:56;5.65;;;5.35;;
17199;SDS011;8716;52.268;20.968;2023-04-27T03:15:26;5.10;;;4.80;;
17199;SDS011;8716;52.268;20.968;2023-04-27T03:17:54;5.63;;;5.32;;
17199;SDS011;8716;52.268;20.968;2023-04-27T03:20:23;5.00;;;4.70;;
17199;SDS011;8716;52.268;20.968;2023-04-27T03:22:53;4.07;;;3.85;;
17199;SDS011;8716;52.268;20.968;2023-04-27T03:25:22;6.65;;;5.00;;
17199;SDS011;8716;52.268;20.968;2023-04-27T03:27:52;5.28;;;4.97;;
17199;SDS011;8716;52.268;20.968;2023-04-27T03:30:21;5.80;;;5.50;;
17199;SDS011;8716;52.268;20.968;2023-04-27T03:32:49;5.00;;;4.70;;
17199;SDS011;8716;52.268;20.968;2023-04-27T03:35:20;5.43;;;5.13;;
17199;SDS011;8716;52.268;20.968;2023-04-27T03:37:48;7.35;;;6.75;;
17199;SDS011;8716;52.268;20.968;2023-04-27T03:40:18;8.77;;;5.68;;
17199;SDS011;8716;52.268;20.968;2023-04-27T03:42:46;6.53;;;6.13;;
17199;SDS011;8716;52.268;20.968;2023-04-27T03:45:15;5.38;;;4.22;;
17199;SDS011;8716;52.268;20.968;2023-04-27T03:47:44;4.68;;;3.40;;
17199;SDS011;8716;52.268;20.968;2023-04-27T03:50:13;7.85;;;5.10;;
17199;SDS011;8716;52.268;20.968;2023-04-27T03:52:44;9.50;;;9.00;;
17199;SDS011;8716;52.268;20.968;2023-04-27T03:55:12;6.22;;;5.32;;
17199;SDS011;8716;52.268;20.968;2023-04-27T03:57:42;5.00;;;4.70;;
17199;SDS011;8716;52.268;20.968;2023-04-27T04:00:10;4.07;;;3.88;;
17199;SDS011;8716;52.268;20.968;2023-04-27T04:02:40;5.95;;;4.72;;
17199;SDS011;8716;52.268;20.968;2023-04-27T04:05:08;5.88;;;5.55;;
17199;SDS011;8716;52.268;20.968;2023-04-27T04:07:37;4.50;;;4.20;;
17199;SDS011;8716;52.268;20.968;2023-04-27T04:10:07;7.65;;;7.25;;
17199;SDS011;8716;52.268;20.968;2023-04-27T04:12:36;6.30;;;5.95;;
17199;SDS011;8716;52.268;20.968;2023-04-27T04:15:06;8.23;;;7.82;;
17199;SDS011;8716;52.268;20.968;2023-04-27T04:17:38;16.38;;;7.15;;
17199;SDS011;8716;52.268;20.968;2023-04-27T04:20:06;8.45;;;5.28;;
17199;SDS011;8716;52.268;20.968;2023-04-27T04:22:36;8.13;;;7.70;;
17199;SDS011;8716;52.268;20.968;2023-04-27T04:25:05;5.85;;;5.55;;
17199;SDS011;8716;52.268;20.968;2023-04-27T04:27:34;6.63;;;6.15;;
17199;SDS011;8716;52.268;20.968;2023-04-27T04:30:03;8.18;;;7.57;;
17199;SDS011;8716;52.268;20.968;2023-04-27T04:32:35;6.03;;;5.72;;
17199;SDS011;8716;52.268;20.968;2023-04-27T04:35:05;6.35;;;5.97;;
17199;SDS011;8716;52.268;20.968;2023-04-27T04:37:33;5.88;;;5.57;;
17199;SDS011;8716;52.268;20.968;2023-04-27T04:40:03;6.72;;;6.32;;
17199;SDS011;8716;52.268;20.968;2023-04-27T04:42:35;9.80;;;8.55;;
17199;SDS011;8716;52.268;20.968;2023-04-27T04:45:07;8.93;;;8.43;;
17199;SDS011;8716;52.268;20.968;2023-04-27T04:47:36;6.68;;;6.03;;
17199;SDS011;8716;52.268;20.968;2023-04-27T04:50:05;6.68;;;5.60;;
17199;SDS011;8716;52.268;20.968;2023-04-27T04:52:35;6.97;;;6.57;;
17199;SDS011;8716;52.268;20.968;2023-04-27T04:55:04;5.95;;;5.57;;
17199;SDS011;8716;52.268;20.968;2023-04-27T04:57:33;9.45;;;7.70;;
17199;SDS011;8716;52.268;20.968;2023-04-27T05:00:01;8.25;;;7.75;;
17199;SDS011;8716;52.268;20.968;2023-04-27T05:02:38;7.07;;;6.60;;
17199;SDS011;8716;52.268;20.968;2023-04-27T05:05:07;7.20;;;6.33;;
17199;SDS011;8716;52.268;20.968;2023-04-27T05:07:38;6.73;;;5.97;;
17199;SDS011;8716;52.268;20.968;2023-04-27T05:10:06;7.37;;;6.97;;
17199;SDS011;8716;52.268;20.968;2023-04-27T05:12:34;6.83;;;6.43;;
17199;SDS011;8716;52.268;20.968;2023-04-27T05:15:03;9.87;;;9.37;;
17199;SDS011;8716;52.268;20.968;2023-04-27T05:17:35;10.00;;;9.50;;
17199;SDS011;8716;52.268;20.968;2023-04-27T05:20:13;7.80;;;7.40;;
17199;SDS011;8716;52.268;20.968;2023-04-27T05:22:45;10.30;;;6.67;;
17199;SDS011;8716;52.268;20.968;2023-04-27T05:25:15;7.50;;;6.27;;
17199;SDS011;8716;52.268;20.968;2023-04-27T05:27:44;8.97;;;8.47;;
17199;SDS011;8716;52.268;20.968;2023-04-27T05:30:12;5.93;;;5.63;;
17199;SDS011;8716;52.268;20.968;2023-04-27T05:32:40;9.47;;;8.97;;
17199;SDS011;8716;52.268;20.968;2023-04-27T05:35:11;11.60;;;10.07;;
17199;SDS011;8716;52.268;20.968;2023-04-27T05:37:40;8.20;;;7.80;;
17199;SDS011;8716;52.268;20.968;2023-04-27T05:40:09;6.67;;;6.27;;
17199;SDS011;8716;52.268;20.968;2023-04-27T05:42:37;12.90;;;9.20;;
17199;SDS011;8716;52.268;20.968;2023-04-27T05:45:08;10.30;;;9.80;;
17199;SDS011;8716;52.268;20.968;2023-04-27T05:47:40;11.23;;;10.63;;
17199;SDS011;8716;52.268;20.968;2023-04-27T05:50:08;6.37;;;6.00;;
17199;SDS011;8716;52.268;20.968;2023-04-27T05:52:37;8.60;;;8.10;;
17199;SDS011;8716;52.268;20.968;2023-04-27T05:55:07;8.27;;;7.87;;
17199;SDS011;8716;52.268;20.968;2023-04-27T05:57:36;9.03;;;8.53;;
17199;SDS011;8716;52.268;20.968;2023-04-27T06:00:05;9.27;;;8.70;;
17199;SDS011;8716;52.268;20.968;2023-04-27T06:02:39;14.47;;;8.47;;
17199;SDS011;8716;52.268;20.968;2023-04-27T06:05:08;12.43;;;10.07;;
17199;SDS011;8716;52.268;20.968;2023-04-27T06:07:36;11.67;;;11.07;;
17199;SDS011;8716;52.268;20.968;2023-04-27T06:10:05;11.43;;;10.83;;
17199;SDS011;8716;52.268;20.968;2023-04-27T06:12:36;12.20;;;11.60;;
17199;SDS011;8716;52.268;20.968;2023-04-27T06:15:05;8.67;;;8.17;;
17199;SDS011;8716;52.268;20.968;2023-04-27T06:17:35;9.90;;;8.87;;
17199;SDS011;8716;52.268;20.968;2023-04-27T06:20:04;13.90;;;9.40;;
17199;SDS011;8716;52.268;20.968;2023-04-27T06:22:45;8.27;;;7.40;;
17199;SDS011;8716;52.268;20.968;2023-04-27T06:25:17;9.50;;;9.00;;
17199;SDS011;8716;52.268;20.968;2023-04-27T06:27:45;12.50;;;8.60;;
17199;SDS011;8716;52.268;20.968;2023-04-27T06:30:13;10.53;;;9.43;;
17199;SDS011;8716;52.268;20.968;2023-04-27T06:32:42;8.63;;;8.13;;
17199;SDS011;8716;52.268;20.968;2023-04-27T06:35:10;10.10;;;9.60;;
17199;SDS011;8716;52.268;20.968;2023-04-27T06:37:38;8.80;;;7.50;;
17199;SDS011;8716;52.268;20.968;2023-04-27T06:40:07;8.90;;;8.40;;
17199;SDS011;8716;52.268;20.968;2023-04-27T06:42:37;8.43;;;7.97;;
17199;SDS011;8716;52.268;20.968;2023-04-27T06:45:07;9.70;;;9.20;;
17199;SDS011;8716;52.268;20.968;2023-04-27T06:47:35;9.60;;;7.43;;
17199;SDS011;8716;52.268;20.968;2023-04-27T06:50:04;6.83;;;6.43;;
17199;SDS011;8716;52.268;20.968;2023-04-27T06:52:32;9.40;;;8.90;;
17199;SDS011;8716;52.268;20.968;2023-04-27T06:55:00;17.37;;;9.10;;
17199;SDS011;8716;52.268;20.968;2023-04-27T06:57:31;7.83;;;7.43;;
17199;SDS011;8716;52.268;20.968;2023-04-27T07:00:01;8.80;;;8.30;;
17199;SDS011;8716;52.268;20.968;2023-04-27T07:02:32;10.87;;;10.03;;
17199;SDS011;8716;52.268;20.968;2023-04-27T07:05:03;19.73;;;11.30;;
17199;SDS011;8716;52.268;20.968;2023-04-27T07:07:32;9.90;;;9.40;;
17199;SDS011;8716;52.268;20.968;2023-04-27T07:10:00;15.50;;;10.13;;
17199;SDS011;8716;52.268;20.968;2023-04-27T07:12:28;7.63;;;7.23;;
17199;SDS011;8716;52.268;20.968;2023-04-27T07:15:00;9.10;;;8.60;;
17199;SDS011;8716;52.268;20.968;2023-04-27T07:17:32;6.50;;;6.10;;
17199;SDS011;8716;52.268;20.968;2023-04-27T07:22:49;10.10;;;9.60;;
17199;SDS011;8716;52.268;20.968;2023-04-27T07:25:18;7.70;;;7.30;;
17199;SDS011;8716;52.268;20.968;2023-04-27T07:27:48;13.60;;;7.53;;
17199;SDS011;8716;52.268;20.968;2023-04-27T07:30:19;12.43;;;10.00;;
17199;SDS011;8716;52.268;20.968;2023-04-27T07:32:48;8.67;;;8.17;;
17199;SDS011;8716;52.268;20.968;2023-04-27T07:35:20;8.27;;;7.87;;
17199;SDS011;8716;52.268;20.968;2023-04-27T07:37:48;8.90;;;8.40;;
17199;SDS011;8716;52.268;20.968;2023-04-27T07:40:17;9.10;;;8.60;;
17199;SDS011;8716;52.268;20.968;2023-04-27T07:42:49;8.10;;;7.70;;
17199;SDS011;8716;52.268;20.968;2023-04-27T07:45:19;8.70;;;8.00;;
17199;SDS011;8716;52.268;20.968;2023-04-27T07:47:48;6.23;;;5.90;;
17199;SDS011;8716;52.268;20.968;2023-04-27T07:50:17;9.97;;;7.97;;
17199;SDS011;8716;52.268;20.968;2023-04-27T07:52:49;13.57;;;12.87;;
17199;SDS011;8716;52.268;20.968;2023-04-27T07:55:18;9.30;;;8.80;;
17199;SDS011;8716;52.268;20.968;2023-04-27T07:57:46;7.70;;;7.27;;
17199;SDS011;8716;52.268;20.968;2023-04-27T08:00:15;8.77;;;8.30;;
17199;SDS011;8716;52.268;20.968;2023-04-27T08:02:47;11.90;;;8.70;;
17199;SDS011;8716;52.268;20.968;2023-04-27T08:05:16;8.10;;;7.70;;
17199;SDS011;8716;52.268;20.968;2023-04-27T08:07:45;9.13;;;8.63;;
17199;SDS011;8716;52.268;20.968;2023-04-27T08:10:13;10.23;;;9.20;;
17199;SDS011;8716;52.268;20.968;2023-04-27T08:12:42;11.80;;;11.20;;
17199;SDS011;8716;52.268;20.968;2023-04-27T08:15:10;9.27;;;8.77;;
17199;SDS011;8716;52.268;20.968;2023-04-27T08:17:38;8.73;;;8.23;;
17199;SDS011;8716;52.268;20.968;2023-04-27T08:20:09;11.00;;;10.27;;
17199;SDS011;8716;52.268;20.968;2023-04-27T08:22:38;6.90;;;6.50;;
17199;SDS011;8716;52.268;20.968;2023-04-27T08:25:07;8.00;;;7.60;;
17199;SDS011;8716;52.268;20.968;2023-04-27T08:27:36;8.60;;;8.13;;
17199;SDS011;8716;52.268;20.968;2023-04-27T08:30:06;7.17;;;6.77;;
17199;SDS011;8716;52.268;20.968;2023-04-27T08:32:34;8.27;;;7.87;;
17199;SDS011;8716;52.268;20.968;2023-04-27T08:35:03;13.47;;;8.23;;
17199;SDS011;8716;52.268;20.968;2023-04-27T08:37:33;10.80;;;10.20;;
17199;SDS011;8716;52.268;20.968;2023-04-27T08:40:03;9.47;;;8.97;;
17199;SDS011;8716;52.268;20.968;2023-04-27T08:42:33;7.43;;;7.03;;
17199;SDS011;8716;52.268;20.968;2023-04-27T08:45:01;9.60;;;9.10;;
17199;SDS011;8716;52.268;20.968;2023-04-27T08:47:33;8.20;;;7.80;;
17199;SDS011;8716;52.268;20.968;2023-04-27T08:50:09;7.30;;;6.90;;
17199;SDS011;8716;52.268;20.968;2023-04-27T08:52:39;8.30;;;7.90;;
17199;SDS011;8716;52.268;20.968;2023-04-27T08:55:11;7.53;;;7.13;;
17199;SDS011;8716;52.268;20.968;2023-04-27T08:57:52;5.97;;;5.67;;
17199;SDS011;8716;52.268;20.968;2023-04-27T09:00:22;10.93;;;7.33;;
17199;SDS011;8716;52.268;20.968;2023-04-27T09:02:51;8.13;;;7.73;;
17199;SDS011;8716;52.268;20.968;2023-04-27T09:05:22;8.43;;;4.77;;
17199;SDS011;8716;52.268;20.968;2023-04-27T09:07:59;5.47;;;5.17;;
17199;SDS011;8716;52.268;20.968;2023-04-27T09:10:41;4.87;;;4.33;;
17199;SDS011;8716;52.268;20.968;2023-04-27T09:13:10;4.07;;;3.83;;
17199;SDS011;8716;52.268;20.968;2023-04-27T09:15:42;6.97;;;6.57;;
17199;SDS011;8716;52.268;20.968;2023-04-27T09:18:14;3.93;;;3.73;;
17199;SDS011;8716;52.268;20.968;2023-04-27T09:20:45;10.23;;;5.43;;
17199;SDS011;8716;52.268;20.968;2023-04-27T09:23:27;3.80;;;3.60;;
17199;SDS011;8716;52.268;20.968;2023-04-27T09:25:58;3.90;;;3.70;;
17199;SDS011;8716;52.268;20.968;2023-04-27T09:28:28;5.00;;;4.70;;
17199;SDS011;8716;52.268;20.968;2023-04-27T09:30:58;5.07;;;4.53;;
17199;SDS011;8716;52.268;20.968;2023-04-27T09:33:28;4.37;;;4.07;;
17199;SDS011;8716;52.268;20.968;2023-04-27T09:35:58;4.37;;;4.07;;
17199;SDS011;8716;52.268;20.968;2023-04-27T09:38:32;3.97;;;3.73;;
17199;SDS011;8716;52.268;20.968;2023-04-27T09:41:01;4.07;;;3.87;;
17199;SDS011;8716;52.268;20.968;2023-04-27T09:43:29;10.10;;;5.10;;
17199;SDS011;8716;52.268;20.968;2023-04-27T09:45:58;5.67;;;5.37;;
17199;SDS011;8716;52.268;20.968;2023-04-27T09:48:29;8.43;;;5.67;;
17199;SDS011;8716;52.268;20.968;2023-04-27T09:50:57;6.17;;;5.83;;
17199;SDS011;8716;52.268;20.968;2023-04-27T09:53:27;5.10;;;4.30;;
17199;SDS011;8716;52.268;20.968;2023-04-27T09:56:07;9.30;;;7.73;;
17199;SDS011;8716;52.268;20.968;2023-04-27T09:58:54;5.83;;;5.40;;
17199;SDS011;8716;52.268;20.968;2023-04-27T10:01:33;5.70;;;5.40;;
17199;SDS011;8716;52.268;20.968;2023-04-27T10:04:12;3.77;;;3.57;;
17199;SDS011;8716;52.268;20.968;2023-04-27T10:06:56;3.87;;;3.73;;
17199;SDS011;8716;52.268;20.968;2023-04-27T10:09:27;4.00;;;3.70;;
17199;SDS011;8716;52.268;20.968;2023-04-27T10:12:16;4.90;;;4.60;;
17199;SDS011;8716;52.268;20.968;2023-04-27T10:14:49;5.10;;;4.77;;
17199;SDS011;8716;52.268;20.968;2023-04-27T10:17:22;4.53;;;4.23;;
17199;SDS011;8716;52.268;20.968;2023-04-27T10:19:55;4.30;;;2.97;;
17199;SDS011;8716;52.268;20.968;2023-04-27T10:22:35;3.83;;;3.63;;
17199;SDS011;8716;52.268;20.968;2023-04-27T10:25:12;4.40;;;4.10;;
17199;SDS011;8716;52.268;20.968;2023-04-27T10:27:47;4.43;;;4.13;;
17199;SDS011;8716;52.268;20.968;2023-04-27T10:30:18;4.83;;;3.87;;
17199;SDS011;8716;52.268;20.968;2023-04-27T10:32:50;4.70;;;4.40;;
17199;SDS011;8716;52.268;20.968;2023-04-27T10:35:20;3.00;;;2.80;;
17199;SDS011;8716;52.268;20.968;2023-04-27T10:37:49;9.67;;;5.93;;
17199;SDS011;8716;52.268;20.968;2023-04-27T10:40:18;6.33;;;4.70;;
17199;SDS011;8716;52.268;20.968;2023-04-27T10:42:48;3.30;;;3.10;;
17199;SDS011;8716;52.268;20.968;2023-04-27T10:45:25;4.00;;;3.80;;
17199;SDS011;8716;52.268;20.968;2023-04-27T10:47:57;3.27;;;3.07;;
17199;SDS011;8716;52.268;20.968;2023-04-27T10:50:29;3.33;;;3.13;;
17199;SDS011;8716;52.268;20.968;2023-04-27T10:53:00;5.03;;;4.73;;
17199;SDS011;8716;52.268;20.968;2023-04-27T10:55:30;4.27;;;4.00;;
17199;SDS011;8716;52.268;20.968;2023-04-27T10:58:00;4.50;;;4.20;;
17199;SDS011;8716;52.268;20.968;2023-04-27T11:00:33;6.20;;;5.87;;
17199;SDS011;8716;52.268;20.968;2023-04-27T11:03:12;4.07;;;3.87;;
17199;SDS011;8716;52.268;20.968;2023-04-27T11:05:44;3.87;;;3.67;;
17199;SDS011;8716;52.268;20.968;2023-04-27T11:08:14;4.53;;;4.23;;
17199;SDS011;8716;52.268;20.968;2023-04-27T11:10:46;4.30;;;4.00;;
17199;SDS011;8716;52.268;20.968;2023-04-27T11:13:18;3.20;;;3.00;;
17199;SDS011;8716;52.268;20.968;2023-04-27T11:15:47;5.17;;;4.87;;
17199;SDS011;8716;52.268;20.968;2023-04-27T11:18:20;4.40;;;4.10;;
17199;SDS011;8716;52.268;20.968;2023-04-27T11:20:52;3.23;;;2.90;;
17199;SDS011;8716;52.268;20.968;2023-04-27T11:23:21;3.40;;;2.60;;
17199;SDS011;8716;52.268;20.968;2023-04-27T11:25:51;3.50;;;3.33;;
17199;SDS011;8716;52.268;20.968;2023-04-27T11:28:21;5.10;;;4.80;;
17199;SDS011;8716;52.268;20.968;2023-04-27T11:30:56;3.67;;;3.47;;
17199;SDS011;8716;52.268;20.968;2023-04-27T11:33:25;3.23;;;3.03;;
17199;SDS011;8716;52.268;20.968;2023-04-27T11:35:53;3.70;;;3.50;;
17199;SDS011;8716;52.268;20.968;2023-04-27T11:38:25;3.37;;;3.17;;
17199;SDS011;8716;52.268;20.968;2023-04-27T11:41:00;3.67;;;3.47;;
17199;SDS011;8716;52.268;20.968;2023-04-27T11:43:32;3.43;;;3.23;;
17199;SDS011;8716;52.268;20.968;2023-04-27T11:46:02;2.87;;;2.67;;
17199;SDS011;8716;52.268;20.968;2023-04-27T11:48:31;3.33;;;3.10;;
17199;SDS011;8716;52.268;20.968;2023-04-27T11:50:59;2.60;;;2.40;;
17199;SDS011;8716;52.268;20.968;2023-04-27T11:53:28;3.23;;;3.03;;
17199;SDS011;8716;52.268;20.968;2023-04-27T11:55:58;3.40;;;3.20;;
17199;SDS011;8716;52.268;20.968;2023-04-27T11:58:27;5.20;;;3.17;;
17199;SDS011;8716;52.268;20.968;2023-04-27T12:00:57;2.67;;;2.47;;
17199;SDS011;8716;52.268;20.968;2023-04-27T12:03:26;3.10;;;2.87;;
17199;SDS011;8716;52.268;20.968;2023-04-27T12:05:56;3.80;;;3.40;;
17199;SDS011;8716;52.268;20.968;2023-04-27T12:08:44;6.93;;;5.20;;
17199;SDS011;8716;52.268;20.968;2023-04-27T12:11:12;4.53;;;4.23;;
17199;SDS011;8716;52.268;20.968;2023-04-27T12:13:40;3.43;;;3.23;;
17199;SDS011;8716;52.268;20.968;2023-04-27T12:16:10;4.30;;;4.00;;
17199;SDS011;8716;52.268;20.968;2023-04-27T12:18:39;6.80;;;3.70;;
17199;SDS011;8716;52.268;20.968;2023-04-27T12:21:07;3.20;;;3.00;;
17199;SDS011;8716;52.268;20.968;2023-04-27T12:23:35;3.30;;;3.10;;
17199;SDS011;8716;52.268;20.968;2023-04-27T12:26:04;2.93;;;2.73;;
17199;SDS011;8716;52.268;20.968;2023-04-27T12:28:32;3.77;;;3.63;;
17199;SDS011;8716;52.268;20.968;2023-04-27T12:31:01;3.10;;;2.90;;
17199;SDS011;8716;52.268;20.968;2023-04-27T12:33:32;3.60;;;3.40;;
17199;SDS011;8716;52.268;20.968;2023-04-27T12:36:00;2.97;;;2.80;;
17199;SDS011;8716;52.268;20.968;2023-04-27T12:38:28;3.90;;;3.70;;
17199;SDS011;8716;52.268;20.968;2023-04-27T12:40:57;2.70;;;2.50;;
17199;SDS011;8716;52.268;20.968;2023-04-27T12:43:26;9.30;;;5.30;;
17199;SDS011;8716;52.268;20.968;2023-04-27T12:45:57;3.83;;;3.67;;
17199;SDS011;8716;52.268;20.968;2023-04-27T12:48:25;3.47;;;3.27;;
17199;SDS011;8716;52.268;20.968;2023-04-27T12:50:55;3.70;;;3.50;;
17199;SDS011;8716;52.268;20.968;2023-04-27T12:53:23;5.20;;;3.60;;
17199;SDS011;8716;52.268;20.968;2023-04-27T12:55:52;3.60;;;3.40;;
17199;SDS011;8716;52.268;20.968;2023-04-27T12:58:20;3.50;;;3.30;;
17199;SDS011;8716;52.268;20.968;2023-04-27T13:00:49;3.63;;;3.43;;
17199;SDS011;8716;52.268;20.968;2023-04-27T13:03:20;3.07;;;2.87;;
17199;SDS011;8716;52.268;20.968;2023-04-27T13:05:49;2.73;;;2.53;;
17199;SDS011;8716;52.268;20.968;2023-04-27T13:08:20;3.23;;;3.03;;
17199;SDS011;8716;52.268;20.968;2023-04-27T13:10:48;2.60;;;2.27;;
17199;SDS011;8716;52.268;20.968;2023-04-27T13:13:19;3.17;;;3.00;;
17199;SDS011;8716;52.268;20.968;2023-04-27T13:15:47;2.80;;;2.60;;
17199;SDS011;8716;52.268;20.968;2023-04-27T13:18:15;3.70;;;3.50;;
17199;SDS011;8716;52.268;20.968;2023-04-27T13:20:47;4.37;;;3.20;;
17199;SDS011;8716;52.268;20.968;2023-04-27T13:23:19;2.37;;;2.17;;
17199;SDS011;8716;52.268;20.968;2023-04-27T13:25:48;3.30;;;3.10;;
17199;SDS011;8716;52.268;20.968;2023-04-27T13:28:18;4.40;;;4.10;;
17199;SDS011;8716;52.268;20.968;2023-04-27T13:30:46;3.90;;;2.67;;
17199;SDS011;8716;52.268;20.968;2023-04-27T13:33:15;3.03;;;2.83;;
17199;SDS011;8716;52.268;20.968;2023-04-27T13:35:49;3.23;;;3.03;;
17199;SDS011;8716;52.268;20.968;2023-04-27T13:38:17;3.50;;;3.30;;
17199;SDS011;8716;52.268;20.968;2023-04-27T13:40:47;3.57;;;3.37;;
17199;SDS011;8716;52.268;20.968;2023-04-27T13:43:15;2.87;;;2.63;;
17199;SDS011;8716;52.268;20.968;2023-04-27T13:45:43;3.13;;;2.93;;
17199;SDS011;8716;52.268;20.968;2023-04-27T13:48:12;3.33;;;3.13;;
17199;SDS011;8716;52.268;20.968;2023-04-27T13:50:40;3.17;;;2.80;;
17199;SDS011;8716;52.268;20.968;2023-04-27T13:53:08;2.93;;;2.73;;
17199;SDS011;8716;52.268;20.968;2023-04-27T13:55:37;5.67;;;3.30;;
17199;SDS011;8716;52.268;20.968;2023-04-27T13:58:07;3.63;;;2.90;;
17199;SDS011;8716;52.268;20.968;2023-04-27T14:00:36;3.17;;;2.90;;
17199;SDS011;8716;52.268;20.968;2023-04-27T14:03:04;3.30;;;3.10;;
17199;SDS011;8716;52.268;20.968;2023-04-27T14:05:34;4.20;;;3.67;;
17199;SDS011;8716;52.268;20.968;2023-04-27T14:08:02;2.97;;;2.80;;
17199;SDS011;8716;52.268;20.968;2023-04-27T14:10:31;3.27;;;3.07;;
17199;SDS011;8716;52.268;20.968;2023-04-27T14:12:59;4.63;;;4.33;;
17199;SDS011;8716;52.268;20.968;2023-04-27T14:15:29;3.60;;;3.40;;
17199;SDS011;8716;52.268;20.968;2023-04-27T14:17:59;3.00;;;2.60;;
17199;SDS011;8716;52.268;20.968;2023-04-27T14:35:13;3.07;;;2.90;;
17199;SDS011;8716;52.268;20.968;2023-04-27T14:37:41;2.90;;;2.63;;
17199;SDS011;8716;52.268;20.968;2023-04-27T14:48:57;2.60;;;2.40;;
17199;SDS011;8716;52.268;20.968;2023-04-27T14:51:27;2.80;;;2.60;;
17199;SDS011;8716;52.268;20.968;2023-04-27T14:53:58;4.80;;;3.73;;
17199;SDS011;8716;52.268;20.968;2023-04-27T14:56:26;3.27;;;3.07;;
17199;SDS011;8716;52.268;20.968;2023-04-27T14:58:54;3.47;;;3.27;;
17199;SDS011;8716;52.268;20.968;2023-04-27T15:01:23;2.87;;;2.67;;
17199;SDS011;8716;52.268;20.968;2023-04-27T15:03:54;2.70;;;2.50;;
17199;SDS011;8716;52.268;20.968;2023-04-27T15:06:23;4.03;;;3.80;;
17199;SDS011;8716;52.268;20.968;2023-04-27T15:14:42;2.77;;;2.57;;
17199;SDS011;8716;52.268;20.968;2023-04-27T15:17:10;2.80;;;2.60;;
17199;SDS011;8716;52.268;20.968;2023-04-27T15:19:41;3.50;;;3.30;;
17199;SDS011;8716;52.268;20.968;2023-04-27T15:22:10;4.27;;;3.40;;
17199;SDS011;8716;52.268;20.968;2023-04-27T15:24:40;2.90;;;2.70;;
17199;SDS011;8716;52.268;20.968;2023-04-27T15:27:08;3.80;;;3.60;;
17199;SDS011;8716;52.268;20.968;2023-04-27T15:29:37;3.70;;;3.50;;
17199;SDS011;8716;52.268;20.968;2023-04-27T15:32:06;4.70;;;4.40;;
17199;SDS011;8716;52.268;20.968;2023-04-27T15:34:34;4.80;;;4.50;;